109 Hyodong Chemi — D7CA — position and weather

sailwx.info

Track history (hours):
 
Tides and Currents Weather Stations Pressure Air Temp Water Temp Dewpoint Dewpoint Depression Visibility Wind Speed Wind Dir Waves Ship Positions

109 Hyodong Chemi

Last reported at 2017-Sep-18 23:55 UTC. Time now 2017-Sep-22 22:34 UTC.
Position N 34°35' E 134°53'.

Length 87 m; draft 4.7 m.

Type: Tanker. MMSI: 440351000.

Date/timePositionNaut miles runAvg speedWind from/ knotsBaromVisibWave heightAir tempDewpointWater temp
2017-Sep-18 23:55N 34°35' E 134°53'613.8
2017-Sep-18 23:30N 34°38' E 134°59'611.6
2017-Sep-18 22:59N 34°34' E 135°05'712.9
2017-Sep-18 22:26N 34°27' E 135°03'613.0
2017-Sep-18 22:00N 34°21' E 135°01'612.6
2017-Sep-18 21:30N 34°15' E 134°59'613.0
2017-Sep-18 21:00N 34°09' E 135°00'712.7
2017-Sep-18 20:29N 34°02' E 135°01'  
2017-Sep-14 23:44N 34°10' E 134°59'312.1
2017-Sep-14 23:31N 34°12' E 134°59'1512.0
2017-Sep-14 22:18N 34°27' E 135°01'311.3
2017-Sep-14 22:00N 34°30' E 135°02'510.8
2017-Sep-14 21:30N 34°35' E 135°03'5 9.9
2017-Sep-14 21:00N 34°36' E 134°57'  
Track history (hours):
 
Tides and Currents Weather Stations Pressure Air Temp Water Temp Dewpoint Dewpoint Depression Visibility Wind Speed Wind Dir Waves Ship Positions

109 Hyodong Chemi

Last reported at 2017-Sep-18 23:55 UTC. Time now 2017-Sep-22 22:34 UTC.
Position N 34°35' E 134°53'.

Length 87 m; draft 4.7 m.

Type: Tanker. MMSI: 440351000.

Date/timePositionNaut miles runAvg speedWind from/ knotsBaromVisibWave heightAir tempDewpointWater temp
2017-Sep-18 23:55N 34°35' E 134°53'613.8
2017-Sep-18 23:30N 34°38' E 134°59'611.6
2017-Sep-18 22:59N 34°34' E 135°05'712.9
2017-Sep-18 22:26N 34°27' E 135°03'613.0
2017-Sep-18 22:00N 34°21' E 135°01'612.6
2017-Sep-18 21:30N 34°15' E 134°59'613.0
2017-Sep-18 21:00N 34°09' E 135°00'712.7
2017-Sep-18 20:29N 34°02' E 135°01'  
2017-Sep-14 23:44N 34°10' E 134°59'312.1
2017-Sep-14 23:31N 34°12' E 134°59'1512.0
2017-Sep-14 22:18N 34°27' E 135°01'311.3
2017-Sep-14 22:00N 34°30' E 135°02'510.8
2017-Sep-14 21:30N 34°35' E 135°03'5 9.9
2017-Sep-14 21:00N 34°36' E 134°57'  

Dump ship's entire track history